Time;durP1;ratioP1;P1;durP2;ratioP2;P2;SDS_P1;SDS_P2;PMS_P1;PMS_P2;Temp;Humidity;BMP_temperature;BMP_pressure;BME280_temperature;BME280_humidity;BME280_pressure;Samples;Min_cycle;Max_cycle;Signal;HPM_P1;HPM_P2
2023/04/10 00:02:09;;;;;;;3.88;3.05;;;14.30;41.90;;;;;;5087324;28;45308;-72
2023/04/10 00:04:36;;;;;;;3.72;3.17;;;14.30;41.90;;;;;;5087173;28;45705;-72
2023/04/10 00:07:03;;;;;;;4.22;2.75;;;14.30;41.90;;;;;;5087313;28;45393;-72
2023/04/10 00:09:30;;;;;;;3.65;2.85;;;14.30;42.10;;;;;;5087171;28;45323;-72
2023/04/10 00:11:57;;;;;;;3.75;2.85;;;14.30;41.90;;;;;;5087348;28;45546;-72
2023/04/10 00:14:24;;;;;;;3.45;2.58;;;14.30;42.70;;;;;;5086917;28;46866;-71
2023/04/10 00:16:51;;;;;;;3.35;2.97;;;14.20;42.10;;;;;;5087021;28;45298;-72
2023/04/10 00:19:19;;;;;;;3.25;2.47;;;14.20;42.10;;;;;;5087251;28;45244;-71
2023/04/10 00:21:46;;;;;;;2.38;2.17;;;14.20;42.20;;;;;;5086965;28;45463;-72
2023/04/10 00:24:13;;;;;;;3.83;2.72;;;14.10;42.00;;;;;;5085808;28;45312;-72
2023/04/10 00:26:40;;;;;;;3.30;3.00;;;14.10;42.20;;;;;;5086399;28;45326;-72
2023/04/10 00:29:07;;;;;;;3.47;2.90;;;14.10;42.30;;;;;;5086963;28;45286;-72
2023/04/10 00:31:34;;;;;;;3.83;2.70;;;14.10;42.40;;;;;;5086996;28;45360;-72
2023/04/10 00:34:01;;;;;;;2.92;2.50;;;14.00;42.40;;;;;;5086509;28;46420;-72
2023/04/10 00:36:30;;;;;;;3.28;2.72;;;14.00;42.40;;;;;;5085856;28;45447;-72
2023/04/10 00:38:58;;;;;;;2.60;2.40;;;14.00;42.50;;;;;;5086245;28;45297;-71
2023/04/10 00:41:25;;;;;;;3.47;2.78;;;13.90;42.40;;;;;;5086600;28;45434;-72
2023/04/10 00:43:55;;;;;;;3.38;2.70;;;13.90;42.40;;;;;;5086486;28;46315;-72
2023/04/10 00:46:22;;;;;;;2.90;2.58;;;13.90;42.20;;;;;;5086718;28;45290;-72
2023/04/10 00:48:49;;;;;;;3.20;2.88;;;13.90;42.40;;;;;;5086553;28;45566;-72
2023/04/10 00:51:18;;;;;;;3.25;2.72;;;13.90;42.40;;;;;;5086782;28;45359;-71
2023/04/10 00:53:46;;;;;;;2.80;2.50;;;13.90;42.30;;;;;;5086251;28;45585;-72
2023/04/10 00:56:13;;;;;;;3.22;2.88;;;13.80;42.20;;;;;;5086607;28;45561;-72
2023/04/10 00:58:40;;;;;;;3.15;2.38;;;13.80;42.50;;;;;;5086603;28;45375;-72
2023/04/10 01:01:07;;;;;;;3.85;2.92;;;13.80;42.50;;;;;;5086486;28;45423;-72
2023/04/10 01:03:34;;;;;;;3.58;2.25;;;13.80;42.30;;;;;;5086284;28;46601;-72
2023/04/10 01:06:04;;;;;;;3.65;2.78;;;13.80;42.40;;;;;;5086494;28;45314;-72
2023/04/10 01:08:34;;;;;;;2.95;2.40;;;13.70;42.40;;;;;;5086361;28;45371;-72
2023/04/10 01:11:06;;;;;;;4.50;3.05;;;13.70;42.30;;;;;;5086425;28;45273;-72
2023/04/10 01:13:35;;;;;;;4.15;2.50;;;13.70;42.40;;;;;;5086299;28;45493;-72
2023/04/10 01:16:02;;;;;;;3.95;2.80;;;13.70;42.40;;;;;;5086138;28;45331;-72
2023/04/10 01:18:32;;;;;;;2.92;2.50;;;13.70;42.50;;;;;;5086359;28;45427;-72
2023/04/10 01:20:59;;;;;;;2.65;2.45;;;13.60;43.10;;;;;;5086528;28;45407;-72
2023/04/10 01:23:46;;;;;;;2.80;2.40;;;13.70;42.60;;;;;;5085948;28;45547;-71
2023/04/10 01:26:16;;;;;;;6.85;2.53;;;13.60;42.60;;;;;;5085682;28;45297;-72
2023/04/10 01:28:56;;;;;;;2.90;2.47;;;13.60;42.60;;;;;;5085507;28;45365;-72
2023/04/10 01:31:27;;;;;;;2.90;2.30;;;13.60;42.70;;;;;;5085582;28;45265;-72
2023/04/10 01:33:56;;;;;;;3.08;2.50;;;13.60;42.40;;;;;;5085300;28;46329;-72
2023/04/10 01:36:26;;;;;;;2.63;2.28;;;13.60;42.50;;;;;;5087492;28;45274;-72
2023/04/10 01:38:54;;;;;;;2.88;2.50;;;13.60;42.40;;;;;;5089289;28;45368;-72
2023/04/10 01:41:20;;;;;;;3.40;2.53;;;13.50;42.40;;;;;;5089341;28;45242;-72
2023/04/10 01:43:47;;;;;;;2.72;2.30;;;13.50;42.30;;;;;;5088783;28;45272;-72
2023/04/10 01:46:16;;;;;;;2.95;2.63;;;13.50;42.30;;;;;;5088776;28;45344;-72
2023/04/10 01:48:43;;;;;;;3.22;2.35;;;13.50;42.40;;;;;;5088771;28;45288;-71
2023/04/10 01:51:10;;;;;;;2.45;2.25;;;13.50;42.20;;;;;;5089066;28;45186;-72
2023/04/10 01:53:36;;;;;;;2.92;2.45;;;13.50;42.20;;;;;;5088717;28;45578;-72
2023/04/10 01:56:03;;;;;;;2.83;2.40;;;13.50;42.30;;;;;;5088770;28;45267;-73
2023/04/10 01:58:30;;;;;;;2.97;2.28;;;13.50;42.30;;;;;;5088757;28;45293;-72
2023/04/10 02:00:57;;;;;;;2.50;2.20;;;13.50;42.30;;;;;;5088828;28;45448;-72
2023/04/10 02:03:25;;;;;;;3.53;2.50;;;13.40;42.40;;;;;;5088660;28;46521;-72
2023/04/10 02:05:57;;;;;;;2.97;2.40;;;13.40;42.40;;;;;;5085708;28;45290;-71
2023/04/10 02:08:26;;;;;;;39.47;20.40;;;13.40;42.60;;;;;;5088557;28;45409;-72
2023/04/10 02:10:56;;;;;;;37.45;17.88;;;13.30;42.50;;;;;;5088717;28;45275;-71
2023/04/10 02:13:23;;;;;;;10.45;5.55;;;13.30;42.60;;;;;;5088276;28;45305;-72
2023/04/10 02:15:50;;;;;;;4.10;3.15;;;13.30;43.20;;;;;;5088246;28;45229;-72
2023/04/10 02:18:17;;;;;;;3.20;2.75;;;13.30;42.70;;;;;;5088641;28;45289;-72
2023/04/10 02:20:45;;;;;;;2.75;2.55;;;13.30;43.00;;;;;;5088635;28;45266;-72
2023/04/10 02:23:12;;;;;;;3.88;2.92;;;13.30;42.90;;;;;;5088161;28;48705;-71
2023/04/10 02:25:39;;;;;;;4.85;3.10;;;13.30;43.10;;;;;;5087740;28;45360;-72
2023/04/10 02:28:06;;;;;;;4.22;2.60;;;13.20;43.20;;;;;;5088202;28;45266;-72
2023/04/10 02:30:33;;;;;;;4.15;2.60;;;13.10;43.40;;;;;;5088325;28;45246;-71
2023/04/10 02:33:00;;;;;;;2.85;2.58;;;13.10;43.30;;;;;;5088162;28;45535;-71
2023/04/10 02:35:28;;;;;;;3.05;2.47;;;13.10;43.30;;;;;;5088006;28;45405;-72
2023/04/10 02:37:56;;;;;;;3.13;2.60;;;13.10;43.40;;;;;;5088044;28;45364;-72
2023/04/10 02:40:23;;;;;;;4.05;2.70;;;13.10;43.60;;;;;;5088252;28;45328;-72
2023/04/10 02:42:49;;;;;;;3.55;2.45;;;13.10;43.80;;;;;;5087709;28;45245;-71
2023/04/10 02:45:16;;;;;;;3.03;2.50;;;13.00;43.80;;;;;;5087675;28;46113;-72
2023/04/10 02:47:43;;;;;;;2.90;2.38;;;13.00;43.70;;;;;;5087100;27;45470;-72
2023/04/10 02:50:11;;;;;;;2.50;2.28;;;13.00;43.70;;;;;;5088234;28;45584;-72
2023/04/10 02:52:38;;;;;;;3.28;2.50;;;13.00;44.00;;;;;;5087742;28;45412;-72
2023/04/10 02:55:07;;;;;;;2.65;2.15;;;12.90;44.00;;;;;;5087688;28;45280;-71
2023/04/10 02:57:35;;;;;;;2.35;2.15;;;12.90;44.20;;;;;;5087605;28;45393;-72
2023/04/10 03:00:03;;;;;;;2.70;2.33;;;13.00;44.30;;;;;;5088019;28;45298;-72
2023/04/10 03:02:30;;;;;;;3.45;2.25;;;12.90;44.40;;;;;;5087584;28;46628;-72
2023/04/10 03:04:57;;;;;;;3.03;2.28;;;12.90;44.40;;;;;;5087619;28;45323;-71
2023/04/10 03:07:24;;;;;;;3.25;2.22;;;12.90;44.90;;;;;;5087577;28;45512;-71
2023/04/10 03:09:51;;;;;;;3.42;2.33;;;12.90;44.50;;;;;;5087879;28;45495;-72
2023/04/10 03:12:19;;;;;;;2.28;2.08;;;12.80;44.60;;;;;;5087303;28;46372;-71
2023/04/10 03:14:46;;;;;;;2.50;2.17;;;12.80;44.60;;;;;;5087513;28;45590;-72
2023/04/10 03:17:13;;;;;;;2.58;2.33;;;12.80;44.60;;;;;;5087433;28;45452;-71
2023/04/10 03:19:40;;;;;;;4.18;2.92;;;12.80;44.80;;;;;;5087518;28;45411;-72
2023/04/10 03:22:07;;;;;;;3.03;2.50;;;12.80;44.80;;;;;;5087468;28;45197;-72
2023/04/10 03:24:34;;;;;;;3.20;2.40;;;12.70;44.90;;;;;;5087136;28;45186;-72
2023/04/10 03:27:01;;;;;;;2.55;2.20;;;12.70;45.10;;;;;;5086906;28;45320;-72
2023/04/10 03:29:29;;;;;;;3.13;2.38;;;12.60;45.20;;;;;;5087811;28;45462;-71
2023/04/10 03:31:56;;;;;;;3.22;2.58;;;12.60;45.40;;;;;;5086930;28;45417;-72
2023/04/10 03:34:23;;;;;;;3.50;2.38;;;12.50;45.80;;;;;;5087038;28;45328;-72
2023/04/10 03:36:50;;;;;;;2.83;2.53;;;12.50;45.80;;;;;;5086994;28;45411;-72
2023/04/10 03:39:17;;;;;;;2.88;2.50;;;12.50;45.60;;;;;;5087249;28;45329;-72
2023/04/10 03:41:44;;;;;;;5.50;2.40;;;12.60;45.60;;;;;;5084279;28;46234;-73
2023/04/10 03:44:11;;;;;;;3.42;2.90;;;12.60;45.40;;;;;;5086876;28;45233;-72
2023/04/10 03:46:39;;;;;;;8.90;2.90;;;12.60;45.30;;;;;;5086786;28;45226;-72
2023/04/10 03:49:06;;;;;;;3.72;3.05;;;12.60;45.30;;;;;;5087206;28;45271;-72
2023/04/10 03:51:32;;;;;;;3.40;2.33;;;12.50;45.80;;;;;;5086955;28;46410;-72
2023/04/10 03:53:59;;;;;;;4.22;2.83;;;12.40;46.00;;;;;;5086665;28;45426;-72
2023/04/10 03:56:26;;;;;;;3.25;2.85;;;12.40;46.50;;;;;;5086846;28;45269;-72
2023/04/10 03:58:53;;;;;;;3.72;2.90;;;12.40;46.60;;;;;;5087094;27;45554;-72
2023/04/10 04:01:20;;;;;;;3.25;2.58;;;12.30;46.50;;;;;;5086554;28;47550;-73
2023/04/10 04:03:49;;;;;;;3.70;3.30;;;12.40;46.50;;;;;;5086595;28;45317;-72
2023/04/10 04:06:16;;;;;;;3.10;2.73;;;12.40;46.50;;;;;;5086748;28;45351;-72
2023/04/10 04:08:42;;;;;;;3.77;3.07;;;12.40;46.40;;;;;;5086822;28;45302;-72
2023/04/10 04:11:10;;;;;;;4.17;3.77;;;12.40;46.40;;;;;;5086505;28;47289;-72
2023/04/10 04:13:37;;;;;;;4.47;3.83;;;12.40;46.40;;;;;;5086340;28;45388;-72
2023/04/10 04:16:04;;;;;;;3.87;3.30;;;12.40;46.50;;;;;;5086656;28;45305;-72
2023/04/10 04:18:31;;;;;;;3.35;2.83;;;12.40;46.60;;;;;;5086588;28;45401;-72
2023/04/10 04:20:59;;;;;;;3.63;3.00;;;12.40;46.60;;;;;;5086254;28;45503;-72
2023/04/10 04:23:26;;;;;;;5.35;2.67;;;12.30;46.40;;;;;;5086225;28;45289;-72
2023/04/10 04:25:54;;;;;;;3.43;2.73;;;12.30;46.40;;;;;;5086272;28;45470;-72
2023/04/10 04:28:22;;;;;;;5.00;2.57;;;12.30;46.40;;;;;;5086580;28;45321;-72
2023/04/10 04:30:48;;;;;;;4.40;2.90;;;12.30;46.30;;;;;;5085951;28;46677;-72
2023/04/10 04:33:15;;;;;;;3.40;2.88;;;12.30;46.30;;;;;;5086287;28;45466;-72
2023/04/10 04:35:42;;;;;;;3.83;3.10;;;12.20;46.40;;;;;;5086250;28;45328;-72
2023/04/10 04:38:10;;;;;;;3.57;3.00;;;12.20;46.70;;;;;;5086350;28;45277;-71
2023/04/10 04:40:37;;;;;;;3.57;3.03;;;12.20;46.90;;;;;;5085944;28;45256;-72
2023/04/10 04:43:04;;;;;;;3.80;2.92;;;12.10;46.50;;;;;;5085830;28;45326;-72
2023/04/10 04:45:31;;;;;;;5.50;3.27;;;12.10;46.80;;;;;;5086169;28;45265;-72
2023/04/10 04:47:58;;;;;;;4.23;2.87;;;12.00;47.10;;;;;;5086086;28;45470;-72
2023/04/10 04:50:24;;;;;;;5.60;3.00;;;12.00;47.10;;;;;;5085809;28;45324;-72
2023/04/10 04:52:51;;;;;;;3.20;2.87;;;12.00;47.10;;;;;;5085880;28;45434;-73
2023/04/10 04:55:20;;;;;;;4.33;2.90;;;12.00;47.00;;;;;;5085998;28;45192;-72
2023/04/10 04:57:46;;;;;;;3.80;2.73;;;12.00;47.20;;;;;;5085965;28;45547;-72
2023/04/10 05:00:14;;;;;;;2.53;2.33;;;12.00;47.20;;;;;;5085567;28;46564;-72
2023/04/10 05:02:41;;;;;;;2.40;2.20;;;12.00;47.30;;;;;;5085606;28;45415;-72
2023/04/10 05:05:08;;;;;;;2.93;2.23;;;11.90;47.20;;;;;;5085780;28;45329;-70
2023/04/10 05:07:35;;;;;;;2.77;2.20;;;11.90;47.30;;;;;;5085907;28;45258;-71
2023/04/10 05:10:02;;;;;;;2.73;2.17;;;11.90;47.20;;;;;;5085068;27;46701;-70
2023/04/10 05:12:30;;;;;;;2.67;2.13;;;11.90;47.30;;;;;;5085570;28;45306;-71
2023/04/10 05:14:57;;;;;;;2.47;2.10;;;11.90;48.00;;;;;;5085792;28;45391;-70
2023/04/10 05:17:24;;;;;;;2.67;2.27;;;11.80;47.60;;;;;;5085502;28;45400;-71
2023/04/10 05:19:51;;;;;;;3.17;2.30;;;11.80;47.80;;;;;;5085153;28;45491;-71
2023/04/10 05:22:17;;;;;;;2.83;2.27;;;11.80;47.80;;;;;;5085367;28;45309;-71
2023/04/10 05:24:44;;;;;;;2.33;1.93;;;11.80;48.10;;;;;;5085518;28;45356;-70
2023/04/10 05:27:11;;;;;;;2.47;2.10;;;11.80;47.90;;;;;;5085056;28;45494;-71
2023/04/10 05:29:39;;;;;;;3.60;2.50;;;11.70;47.90;;;;;;5085319;28;46458;-70
2023/04/10 05:32:06;;;;;;;2.47;2.07;;;11.80;47.80;;;;;;5085159;28;45319;-70
2023/04/10 05:34:33;;;;;;;3.13;2.37;;;11.80;47.80;;;;;;5085331;28;45375;-70
2023/04/10 05:37:00;;;;;;;2.63;2.27;;;11.80;47.90;;;;;;5085230;28;45490;-70
2023/04/10 05:39:27;;;;;;;2.30;2.10;;;11.80;48.00;;;;;;5085199;28;45297;-70
2023/04/10 05:41:54;;;;;;;4.33;2.23;;;11.80;48.00;;;;;;5082631;28;45363;-70
2023/04/10 05:44:20;;;;;;;3.40;2.30;;;11.70;48.10;;;;;;5085330;28;45251;-70
2023/04/10 05:46:49;;;;;;;1.97;1.87;;;11.70;48.20;;;;;;5085405;28;45551;-72
2023/04/10 05:49:16;;;;;;;3.30;2.57;;;11.70;48.20;;;;;;5084927;28;45431;-72
2023/04/10 05:51:43;;;;;;;4.10;2.67;;;11.70;48.40;;;;;;5084967;28;45241;-72
2023/04/10 05:54:10;;;;;;;3.53;2.67;;;11.70;48.60;;;;;;5085028;28;45330;-72
2023/04/10 05:56:37;;;;;;;6.10;3.23;;;11.70;48.60;;;;;;5085282;28;45388;-72
2023/04/10 05:59:04;;;;;;;4.13;3.33;;;11.70;48.80;;;;;;5084947;28;46484;-72
2023/04/10 06:01:30;;;;;;;3.77;2.40;;;11.70;48.90;;;;;;5084858;28;45331;-72
2023/04/10 06:03:58;;;;;;;3.07;2.67;;;11.70;48.70;;;;;;5084900;28;45258;-72
2023/04/10 06:06:26;;;;;;;5.00;3.83;;;11.70;48.60;;;;;;5085026;28;45268;-72
2023/04/10 06:08:53;;;;;;;7.93;5.30;;;11.70;48.60;;;;;;5084786;28;46418;-72
2023/04/10 06:11:19;;;;;;;6.37;4.30;;;11.70;48.70;;;;;;5084773;28;45405;-70
2023/04/10 06:13:46;;;;;;;7.33;3.60;;;11.70;48.70;;;;;;5085008;28;45570;-72
2023/04/10 06:16:14;;;;;;;10.43;7.73;;;11.70;48.80;;;;;;5085384;28;45247;-72
2023/04/10 06:18:41;;;;;;;4.10;3.70;;;11.70;48.80;;;;;;5084479;28;46350;-71
2023/04/10 06:21:09;;;;;;;3.87;3.10;;;11.70;48.90;;;;;;5084562;28;45337;-71
2023/04/10 06:23:36;;;;;;;3.07;2.67;;;11.70;49.10;;;;;;5087132;28;45333;-70
2023/04/10 06:26:04;;;;;;;3.83;2.97;;;11.70;48.90;;;;;;5088213;28;45596;-70
2023/04/10 06:28:31;;;;;;;2.20;2.00;;;11.70;49.10;;;;;;5088031;28;47532;-70
2023/04/10 06:30:57;;;;;;;3.10;2.53;;;11.80;49.10;;;;;;5088025;28;45401;-72
2023/04/10 06:33:24;;;;;;;3.40;2.57;;;11.80;49.70;;;;;;5088285;28;45324;-72
2023/04/10 06:35:51;;;;;;;3.67;2.40;;;11.80;49.00;;;;;;5088238;28;45582;-72
2023/04/10 06:38:19;;;;;;;3.33;2.57;;;11.80;48.90;;;;;;5087889;28;45464;-72
2023/04/10 06:40:46;;;;;;;3.43;2.37;;;11.80;49.10;;;;;;5088199;28;45336;-72
2023/04/10 06:43:13;;;;;;;3.87;2.60;;;11.90;48.90;;;;;;5088030;28;45369;-72
2023/04/10 06:45:40;;;;;;;4.60;2.30;;;11.90;48.70;;;;;;5088033;28;45370;-71
2023/04/10 06:48:07;;;;;;;3.00;2.30;;;11.90;48.70;;;;;;5087521;28;45291;-72
2023/04/10 06:50:33;;;;;;;3.03;2.10;;;12.00;48.70;;;;;;5087902;28;45269;-72
2023/04/10 06:53:00;;;;;;;2.33;1.93;;;12.00;48.40;;;;;;5087850;28;45361;-72
2023/04/10 06:55:29;;;;;;;3.10;2.07;;;12.00;48.30;;;;;;5087880;28;45389;-72
2023/04/10 06:57:56;;;;;;;1.80;1.70;;;12.00;48.20;;;;;;5087657;28;45478;-72
2023/04/10 07:00:23;;;;;;;2.87;2.30;;;12.10;48.30;;;;;;5087545;28;45356;-72
2023/04/10 07:02:50;;;;;;;2.43;2.00;;;12.10;48.30;;;;;;5087767;28;45283;-72
2023/04/10 07:05:17;;;;;;;2.73;2.30;;;12.10;48.30;;;;;;5087767;28;45491;-72
2023/04/10 07:07:43;;;;;;;2.50;2.13;;;12.10;48.40;;;;;;5087183;28;45334;-72
2023/04/10 07:10:11;;;;;;;3.17;2.20;;;12.20;48.40;;;;;;5087813;28;45400;-72
2023/04/10 07:12:40;;;;;;;3.80;2.20;;;12.20;48.80;;;;;;5087581;28;45384;-72
2023/04/10 07:15:11;;;;;;;2.67;2.20;;;12.20;48.80;;;;;;5087735;28;45273;-72
2023/04/10 07:17:38;;;;;;;2.33;2.13;;;12.20;48.90;;;;;;5087186;28;45413;-72
2023/04/10 07:20:06;;;;;;;2.37;2.17;;;12.30;49.20;;;;;;5087346;28;45261;-71
2023/04/10 07:22:33;;;;;;;2.73;2.10;;;12.30;49.40;;;;;;5087300;28;45394;-72
2023/04/10 07:24:59;;;;;;;2.80;2.23;;;12.30;49.50;;;;;;5087523;28;45706;-72
2023/04/10 07:27:26;;;;;;;2.73;2.43;;;12.40;49.40;;;;;;5086496;28;46378;-72
2023/04/10 07:29:55;;;;;;;3.03;2.30;;;12.40;49.40;;;;;;5087313;28;45496;-72
2023/04/10 07:32:22;;;;;;;3.63;2.67;;;12.40;48.90;;;;;;5087828;28;45367;-72
2023/04/10 07:34:49;;;;;;;3.27;2.60;;;12.50;49.00;;;;;;5087456;27;45462;-72
2023/04/10 07:37:16;;;;;;;3.97;3.03;;;12.50;48.60;;;;;;5087165;28;46529;-72
2023/04/10 07:39:43;;;;;;;3.58;2.75;;;12.60;48.60;;;;;;5086997;28;45403;-73
2023/04/10 07:42:10;;;;;;;4.67;3.00;;;12.60;48.90;;;;;;5087240;28;45273;-72
2023/04/10 07:44:37;;;;;;;2.47;2.20;;;12.60;49.00;;;;;;5087497;28;45612;-72
2023/04/10 07:47:05;;;;;;;3.03;2.73;;;12.60;48.20;;;;;;5086599;28;46403;-72
2023/04/10 07:49:32;;;;;;;3.80;2.87;;;12.70;48.40;;;;;;5087409;28;45417;-70
2023/04/10 07:51:59;;;;;;;3.50;2.77;;;12.70;48.80;;;;;;5087214;28;45286;-72
2023/04/10 07:54:26;;;;;;;3.57;2.60;;;12.80;48.70;;;;;;5087428;28;45238;-72
2023/04/10 07:56:53;;;;;;;3.28;2.67;;;12.80;48.60;;;;;;5086838;28;46429;-72
2023/04/10 07:59:20;;;;;;;2.77;2.50;;;12.80;48.60;;;;;;5086769;28;45333;-72
2023/04/10 08:01:47;;;;;;;2.87;2.57;;;12.90;48.90;;;;;;5087028;28;45369;-72
2023/04/10 08:04:15;;;;;;;2.70;1.87;;;12.90;48.30;;;;;;5087018;28;45497;-72
2023/04/10 08:06:42;;;;;;;2.70;2.50;;;13.00;47.50;;;;;;5086488;28;46426;-72
2023/04/10 08:09:09;;;;;;;3.50;2.47;;;13.00;47.60;;;;;;5086721;28;45270;-72
2023/04/10 08:11:36;;;;;;;2.70;2.47;;;13.00;47.20;;;;;;5087107;28;45411;-71
2023/04/10 08:14:04;;;;;;;2.97;2.50;;;13.10;47.80;;;;;;5087135;28;45372;-72
2023/04/10 08:16:32;;;;;;;3.20;2.83;;;13.10;47.50;;;;;;5086528;28;47565;-71
2023/04/10 08:18:59;;;;;;;2.77;1.93;;;13.20;47.00;;;;;;5086566;28;45404;-72
2023/04/10 08:21:28;;;;;;;3.15;2.38;;;13.20;46.70;;;;;;5086611;28;45420;-72
2023/04/10 08:23:55;;;;;;;2.28;2.08;;;13.30;46.90;;;;;;5086902;28;45253;-72
2023/04/10 08:26:22;;;;;;;3.35;2.08;;;13.30;46.90;;;;;;5086205;28;45728;-72
2023/04/10 08:28:49;;;;;;;3.23;2.77;;;13.30;46.90;;;;;;5086249;28;45254;-71
2023/04/10 08:31:16;;;;;;;2.73;2.30;;;13.40;47.30;;;;;;5086698;28;45301;-72
2023/04/10 08:33:43;;;;;;;2.50;2.30;;;13.40;47.20;;;;;;5086836;28;45420;-72
2023/04/10 08:36:11;;;;;;;2.75;2.55;;;13.40;46.90;;;;;;5086281;28;45677;-71
2023/04/10 08:38:39;;;;;;;3.47;2.40;;;13.50;47.10;;;;;;5086355;28;45626;-72
2023/04/10 08:41:07;;;;;;;1.95;1.85;;;13.50;46.60;;;;;;5086339;28;45347;-72
2023/04/10 08:43:34;;;;;;;2.40;2.20;;;13.60;46.10;;;;;;5086536;28;45408;-71
2023/04/10 08:46:01;;;;;;;2.30;2.10;;;13.60;45.90;;;;;;5085120;27;46813;-71
2023/04/10 08:48:38;;;;;;;1.95;1.75;;;13.60;46.20;;;;;;5085956;28;45270;-72
2023/04/10 08:51:05;;;;;;;4.00;1.83;;;13.70;45.90;;;;;;5086348;28;45336;-71
2023/04/10 08:53:32;;;;;;;2.50;2.28;;;13.70;45.60;;;;;;5086268;28;45415;-71
2023/04/10 08:56:01;;;;;;;2.55;2.00;;;13.70;45.90;;;;;;5085923;28;46435;-72
2023/04/10 08:58:27;;;;;;;2.95;2.30;;;13.80;46.20;;;;;;5085942;28;45385;-71
2023/04/10 09:00:54;;;;;;;2.60;2.20;;;13.80;46.40;;;;;;5086179;28;45384;-72
2023/04/10 09:03:21;;;;;;;5.65;2.40;;;13.90;46.70;;;;;;5086487;28;45356;-72
2023/04/10 09:05:48;;;;;;;3.63;2.40;;;13.90;46.80;;;;;;5085736;28;46387;-72
2023/04/10 09:08:15;;;;;;;4.30;2.65;;;14.00;46.70;;;;;;5085961;28;45306;-72
2023/04/10 09:10:42;;;;;;;4.03;2.60;;;14.00;46.50;;;;;;5086024;28;45332;-72
2023/04/10 09:13:10;;;;;;;3.05;2.47;;;14.00;46.80;;;;;;5086201;28;45225;-72
2023/04/10 09:15:56;;;;;;;4.03;2.30;;;14.10;46.60;;;;;;5085300;28;45559;-71
2023/04/10 09:18:23;;;;;;;3.60;2.30;;;14.10;46.30;;;;;;5085447;28;45443;-72
2023/04/10 09:20:50;;;;;;;2.25;2.05;;;14.20;46.40;;;;;;5085838;28;45356;-72
2023/04/10 09:23:21;;;;;;;2.70;2.13;;;14.20;46.10;;;;;;5086221;28;45295;-71
2023/04/10 09:25:48;;;;;;;2.75;2.47;;;14.20;45.90;;;;;;5085343;28;45492;-72
2023/04/10 09:28:16;;;;;;;2.83;2.20;;;14.30;46.10;;;;;;5086096;28;45337;-72
2023/04/10 09:30:43;;;;;;;2.60;2.40;;;14.30;45.70;;;;;;5086694;28;45226;-72
2023/04/10 09:33:22;;;;;;;2.85;2.13;;;14.40;45.40;;;;;;5087061;28;45258;-71
2023/04/10 09:35:49;;;;;;;2.70;2.28;;;14.40;45.20;;;;;;5086285;28;45376;-71
2023/04/10 09:38:22;;;;;;;3.13;2.25;;;14.50;45.40;;;;;;5086289;28;45313;-72
2023/04/10 09:40:49;;;;;;;2.10;1.90;;;14.50;45.10;;;;;;5086851;28;45322;-71
2023/04/10 09:43:22;;;;;;;2.88;2.20;;;14.60;44.90;;;;;;5086644;28;45429;-72
2023/04/10 09:45:52;;;;;;;2.42;2.03;;;14.70;44.70;;;;;;5086242;28;45892;-72
2023/04/10 09:48:19;;;;;;;2.55;1.90;;;14.70;44.50;;;;;;5085892;28;45304;-72
2023/04/10 09:50:46;;;;;;;2.10;1.90;;;14.70;44.40;;;;;;5086873;28;45420;-72
2023/04/10 09:53:14;;;;;;;2.55;2.03;;;14.70;44.50;;;;;;5086518;28;45316;-72
2023/04/10 09:55:41;;;;;;;1.88;1.75;;;14.80;44.50;;;;;;5086256;28;45291;-73
2023/04/10 09:58:09;;;;;;;2.35;2.10;;;14.80;44.40;;;;;;5088991;27;45320;-72
2023/04/10 10:00:41;;;;;;;2.72;2.10;;;14.90;44.60;;;;;;5089854;28;45205;-71
2023/04/10 10:03:09;;;;;;;2.10;1.90;;;14.90;45.00;;;;;;5089582;28;45271;-72
2023/04/10 10:05:37;;;;;;;3.08;1.95;;;15.00;44.50;;;;;;5089114;28;46733;-72
2023/04/10 10:08:04;;;;;;;2.13;1.90;;;15.00;44.60;;;;;;5089004;28;45423;-72
2023/04/10 10:10:31;;;;;;;1.95;1.80;;;15.10;44.40;;;;;;5089758;28;45252;-72
2023/04/10 10:13:00;;;;;;;1.90;1.80;;;15.20;44.30;;;;;;5089416;28;45194;-72
2023/04/10 10:15:31;;;;;;;3.55;2.00;;;15.20;44.30;;;;;;5089681;28;45464;-72
2023/04/10 10:18:03;;;;;;;2.50;2.15;;;15.30;44.20;;;;;;5089489;28;45265;-72
2023/04/10 10:20:31;;;;;;;2.22;2.03;;;15.30;44.10;;;;;;5088875;28;45333;-72
2023/04/10 10:22:58;;;;;;;2.00;1.80;;;15.40;44.00;;;;;;5090068;28;45326;-72
2023/04/10 10:25:25;;;;;;;2.10;1.90;;;15.50;43.80;;;;;;5090051;28;45379;-73
2023/04/10 10:27:52;;;;;;;2.10;1.90;;;15.50;44.00;;;;;;5088823;28;45431;-72
2023/04/10 10:30:19;;;;;;;2.55;1.83;;;15.60;44.20;;;;;;5089773;28;45306;-70
2023/04/10 10:32:46;;;;;;;2.30;1.88;;;15.60;44.40;;;;;;5089310;28;45628;-70
2023/04/10 10:35:15;;;;;;;2.15;1.85;;;15.70;44.50;;;;;;5088249;28;46746;-70
2023/04/10 10:37:44;;;;;;;2.17;1.98;;;15.70;44.40;;;;;;5088242;28;45325;-70
2023/04/10 10:40:14;;;;;;;2.20;1.83;;;15.70;44.40;;;;;;5088261;28;45299;-68
2023/04/10 10:42:45;;;;;;;2.95;1.95;;;15.70;44.20;;;;;;5088552;28;45303;-73
2023/04/10 10:45:13;;;;;;;1.98;1.60;;;15.80;44.30;;;;;;5088496;28;45256;-72
2023/04/10 10:47:41;;;;;;;1.70;1.60;;;15.80;44.50;;;;;;5088232;28;46576;-71
2023/04/10 10:50:09;;;;;;;2.00;1.88;;;15.80;44.30;;;;;;5088441;28;45313;-71
2023/04/10 10:52:48;;;;;;;1.70;1.60;;;15.90;45.00;;;;;;5088814;28;45506;-71
2023/04/10 10:55:35;;;;;;;1.90;1.80;;;15.90;44.40;;;;;;5087847;28;45414;-71
2023/04/10 10:58:03;;;;;;;1.75;1.65;;;16.00;44.50;;;;;;5088078;28;45498;-70
2023/04/10 11:01:04;;;;;;;1.67;1.58;;;16.00;44.40;;;;;;5087267;28;45297;-70
2023/04/10 11:03:31;;;;;;;3.33;1.88;;;16.10;44.50;;;;;;5088416;28;45527;-71
2023/04/10 11:05:59;;;;;;;2.55;1.73;;;16.10;44.70;;;;;;5087923;28;45404;-71
2023/04/10 11:08:42;;;;;;;1.95;1.70;;;16.10;44.70;;;;;;5086858;27;45341;-71
2023/04/10 11:11:11;;;;;;;5.40;1.60;;;16.20;44.70;;;;;;5088013;28;45300;-71
2023/04/10 11:13:39;;;;;;;2.47;1.92;;;16.20;44.70;;;;;;5088136;28;45313;-71
2023/04/10 11:16:07;;;;;;;2.53;1.80;;;16.30;44.80;;;;;;5087827;28;45417;-71
2023/04/10 11:19:01;;;;;;;2.63;1.75;;;16.30;44.70;;;;;;5087676;28;45395;-71
2023/04/10 11:21:28;;;;;;;1.95;1.73;;;16.40;44.60;;;;;;5087961;28;45430;-71
2023/04/10 11:24:06;;;;;;;2.10;1.58;;;16.40;44.60;;;;;;5085631;28;45321;-71
2023/04/10 11:26:37;;;;;;;1.60;1.50;;;16.50;44.60;;;;;;5087751;28;45573;-70
2023/04/10 11:29:04;;;;;;;2.17;1.90;;;16.60;44.50;;;;;;5088094;28;45500;-70
2023/04/10 11:31:31;;;;;;;1.83;1.73;;;16.60;44.50;;;;;;5087676;28;45435;-71
2023/04/10 11:34:02;;;;;;;3.65;1.70;;;16.70;44.50;;;;;;5088745;28;45436;-71
2023/04/10 11:36:29;;;;;;;2.20;1.98;;;16.70;44.30;;;;;;5087246;28;46447;-71
2023/04/10 11:38:56;;;;;;;1.60;1.50;;;16.80;44.30;;;;;;5087359;28;45651;-71
2023/04/10 11:41:29;;;;;;;1.95;1.80;;;16.90;44.20;;;;;;5087401;28;45324;-71
2023/04/10 11:43:56;;;;;;;1.67;1.58;;;17.00;44.00;;;;;;5087525;28;45669;-71
2023/04/10 11:46:23;;;;;;;2.15;1.95;;;17.00;44.70;;;;;;5087158;28;46568;-71
2023/04/10 11:48:52;;;;;;;2.25;1.83;;;17.10;44.10;;;;;;5087059;28;45520;-72
2023/04/10 11:51:22;;;;;;;2.15;1.80;;;17.10;44.10;;;;;;5087258;28;45397;-72
2023/04/10 11:53:49;;;;;;;1.95;1.77;;;17.20;44.00;;;;;;5087246;28;45574;-72
2023/04/10 11:56:17;;;;;;;2.70;1.70;;;17.20;44.00;;;;;;5086889;28;45531;-71
2023/04/10 11:58:45;;;;;;;1.65;1.50;;;17.20;44.10;;;;;;5087107;28;45311;-71
2023/04/10 12:01:13;;;;;;;1.50;1.40;;;17.20;44.10;;;;;;5087230;28;45246;-72
2023/04/10 12:03:41;;;;;;;1.75;1.58;;;17.30;44.00;;;;;;5087150;28;45226;-71
2023/04/10 12:06:10;;;;;;;2.05;1.77;;;17.30;44.10;;;;;;5087332;28;45415;-71
2023/04/10 12:08:37;;;;;;;1.70;1.60;;;17.30;44.10;;;;;;5086980;28;45345;-71
2023/04/10 12:11:04;;;;;;;1.88;1.63;;;17.40;44.10;;;;;;5087756;28;45244;-71
2023/04/10 12:13:31;;;;;;;1.90;1.80;;;17.40;44.20;;;;;;5088214;28;45241;-71
2023/04/10 12:16:00;;;;;;;2.05;1.70;;;17.40;44.10;;;;;;5087186;28;46736;-72
2023/04/10 12:18:27;;;;;;;1.95;1.73;;;17.50;44.80;;;;;;5086971;28;45319;-71
2023/04/10 12:20:56;;;;;;;2.97;1.65;;;17.50;44.00;;;;;;5083378;28;45293;-71
2023/04/10 12:23:23;;;;;;;1.92;1.73;;;17.50;43.90;;;;;;5087068;28;45372;-72
2023/04/10 12:25:50;;;;;;;1.88;1.58;;;17.60;44.10;;;;;;5086247;28;45443;-70
2023/04/10 12:28:20;;;;;;;2.28;1.70;;;17.60;44.10;;;;;;5086604;28;45305;-71
2023/04/10 12:30:48;;;;;;;1.98;1.73;;;17.60;44.00;;;;;;5086423;28;45340;-71
2023/04/10 12:33:20;;;;;;;1.70;1.60;;;17.70;44.00;;;;;;5086564;28;45321;-71
2023/04/10 12:35:47;;;;;;;1.80;1.70;;;17.70;44.00;;;;;;5086160;28;47899;-70
2023/04/10 12:38:14;;;;;;;2.05;1.77;;;17.70;44.10;;;;;;5086234;28;45337;-70
2023/04/10 12:40:58;;;;;;;2.42;1.85;;;17.70;44.20;;;;;;5086632;28;45329;-71
2023/04/10 12:43:32;;;;;;;2.25;1.88;;;17.70;44.20;;;;;;5086435;28;45364;-71
2023/04/10 12:45:59;;;;;;;2.80;1.70;;;17.80;44.30;;;;;;5086273;28;46670;-71
2023/04/10 12:48:28;;;;;;;1.98;1.88;;;17.80;44.30;;;;;;5086058;28;45376;-71
2023/04/10 12:50:54;;;;;;;1.45;1.35;;;17.80;44.30;;;;;;5086317;28;45293;-71